Time;durP1;ratioP1;P1;durP2;ratioP2;P2;SDS_P1;SDS_P2;PMS_P1;PMS_P2;Temp;Humidity;BMP_temperature;BMP_pressure;BME280_temperature;BME280_humidity;BME280_pressure;Samples;Min_cycle;Max_cycle;Signal;HPM_P1;HPM_P2
2022/10/13 00:00:36;;;;;;;21.25;11.35;;;10.20;99.90;;;;;;5137178;27;20047;-79
2022/10/13 00:03:02;;;;;;;20.67;11.82;;;10.20;99.90;;;;;;5129297;27;20051;-80
2022/10/13 00:05:29;;;;;;;20.33;12.18;;;10.20;99.90;;;;;;5106754;27;20099;-80
2022/10/13 00:07:56;;;;;;;19.42;11.90;;;10.20;99.90;;;;;;5136918;27;20030;-79
2022/10/13 00:10:21;;;;;;;24.23;12.40;;;10.20;99.90;;;;;;5128578;27;20042;-80
2022/10/13 00:12:47;;;;;;;20.55;11.93;;;10.20;99.90;;;;;;5117195;27;20039;-80
2022/10/13 00:15:13;;;;;;;22.52;12.43;;;10.20;99.90;;;;;;5115920;27;20038;-80
2022/10/13 00:17:40;;;;;;;19.80;11.73;;;10.20;99.90;;;;;;5133011;27;20482;-80
2022/10/13 00:20:07;;;;;;;25.90;12.77;;;10.20;99.90;;;;;;5133021;27;20099;-80
2022/10/13 00:22:33;;;;;;;27.23;12.80;;;10.20;99.90;;;;;;5115250;27;20121;-80
2022/10/13 00:24:59;;;;;;;24.58;12.98;;;10.20;99.90;;;;;;5128909;27;20047;-80
2022/10/13 00:27:25;;;;;;;23.42;12.52;;;10.20;99.90;;;;;;5120100;27;20394;-80
2022/10/13 00:29:50;;;;;;;27.40;13.13;;;10.20;99.90;;;;;;5096692;27;20406;-80
2022/10/13 00:32:17;;;;;;;20.75;12.23;;;10.20;99.90;;;;;;5111902;27;20039;-80
2022/10/13 00:34:43;;;;;;;22.75;12.63;;;10.20;99.90;;;;;;5123807;27;20487;-80
2022/10/13 00:37:08;;;;;;;21.40;11.93;;;10.70;99.90;;;;;;5099761;27;20076;-80
2022/10/13 00:39:35;;;;;;;23.70;12.13;;;10.20;99.90;;;;;;5128018;27;20043;-80
2022/10/13 00:42:02;;;;;;;28.55;12.65;;;10.20;99.90;;;;;;5128632;27;20042;-80
2022/10/13 00:44:59;;;;;;;21.00;12.32;;;10.20;99.90;;;;;;5128422;27;20027;-80
2022/10/13 00:47:45;;;;;;;25.50;12.27;;;10.20;99.90;;;;;;5147013;27;20034;-80
2022/10/13 00:50:20;;;;;;;25.10;12.68;;;10.10;99.90;;;;;;5133257;27;20031;-80
2022/10/13 00:52:48;;;;;;;20.15;12.05;;;10.10;99.90;;;;;;5131928;27;20122;-80
2022/10/13 00:55:18;;;;;;;19.98;13.18;;;10.10;99.90;;;;;;5131398;27;20049;-80
2022/10/13 00:57:46;;;;;;;22.45;13.45;;;10.30;99.90;;;;;;5127128;27;20035;-80
2022/10/13 01:00:13;;;;;;;19.30;12.27;;;10.20;99.90;;;;;;5133676;27;20035;-80
2022/10/13 01:02:39;;;;;;;20.50;12.98;;;10.10;99.90;;;;;;5114946;27;20447;-80
2022/10/13 01:05:07;;;;;;;19.40;12.13;;;10.10;99.90;;;;;;5117104;27;20032;-79
2022/10/13 01:07:33;;;;;;;24.58;13.45;;;10.10;99.90;;;;;;5132326;27;20043;-80
2022/10/13 01:10:01;;;;;;;24.48;12.63;;;10.10;99.90;;;;;;5126103;27;20035;-79
2022/10/13 01:13:05;;;;;;;24.08;12.48;;;10.10;99.90;;;;;;5113033;27;20043;-78
2022/10/13 01:15:59;;;;;;;21.77;13.15;;;10.10;99.90;;;;;;5112124;27;20042;-80
2022/10/13 01:19:01;;;;;;;27.08;12.32;;;10.10;99.90;;;;;;5105622;27;20043;-79
2022/10/13 01:21:56;;;;;;;20.55;12.90;;;10.00;99.90;;;;;;5122116;27;20035;-79
2022/10/13 01:24:28;;;;;;;19.00;12.95;;;10.00;99.90;;;;;;5135388;27;20070;-78
2022/10/13 01:27:21;;;;;;;24.42;12.95;;;10.00;99.90;;;;;;5131088;27;20039;-77
2022/10/13 01:30:12;;;;;;;21.70;12.38;;;10.00;99.90;;;;;;5132973;27;20027;-80
2022/10/13 01:33:27;;;;;;;21.15;12.85;;;10.00;99.90;;;;;;5121257;27;20066;-80
2022/10/13 01:35:55;;;;;;;20.42;12.43;;;10.00;99.90;;;;;;5113779;27;20042;-79
2022/10/13 01:38:59;;;;;;;23.40;12.85;;;9.90;99.90;;;;;;5140512;27;20066;-80
2022/10/13 01:41:35;;;;;;;20.67;12.98;;;9.90;99.90;;;;;;5128160;27;20191;-79
2022/10/13 01:44:16;;;;;;;22.25;12.00;;;9.90;99.90;;;;;;5136998;27;20068;-79
2022/10/13 01:46:44;;;;;;;21.23;12.38;;;9.90;99.90;;;;;;5159117;27;20098;-79
2022/10/13 01:49:13;;;;;;;23.48;12.73;;;10.00;99.90;;;;;;5122109;28;20390;-80
2022/10/13 01:51:40;;;;;;;19.77;12.52;;;9.90;99.90;;;;;;5135460;27;20039;-79
2022/10/13 01:54:06;;;;;;;25.83;12.93;;;9.90;99.90;;;;;;5114479;27;20050;-80
2022/10/13 01:56:32;;;;;;;27.52;12.93;;;9.90;99.90;;;;;;5128778;27;20039;-80
2022/10/13 01:59:02;;;;;;;20.52;12.35;;;9.90;99.90;;;;;;5129408;27;20034;-79
2022/10/13 02:01:52;;;;;;;21.73;13.40;;;9.90;99.90;;;;;;5150718;27;20062;-80
2022/10/13 02:05:04;;;;;;;22.17;12.73;;;9.90;99.90;;;;;;5127779;27;20074;-79
2022/10/13 02:08:08;;;;;;;21.60;12.60;;;9.90;99.90;;;;;;5127352;28;20035;-79
2022/10/13 02:10:45;;;;;;;25.48;13.20;;;9.90;99.90;;;;;;5153311;27;20498;-86
2022/10/13 02:13:14;;;;;;;20.27;12.45;;;10.00;99.90;;;;;;5135463;27;20044;-86
2022/10/13 02:15:45;;;;;;;23.15;12.80;;;10.00;99.90;;;;;;5137570;27;20070;-86
2022/10/13 02:18:13;;;;;;;21.95;12.88;;;10.00;99.90;;;;;;5135896;27;20047;-86
2022/10/13 02:20:44;;;;;;;20.48;12.98;;;10.00;99.90;;;;;;5137504;27;20030;-86
2022/10/13 02:23:14;;;;;;;23.70;13.10;;;10.10;99.90;;;;;;5141255;27;20116;-86
2022/10/13 02:25:41;;;;;;;25.98;13.15;;;10.10;99.90;;;;;;5139856;27;20060;-86
2022/10/13 02:28:08;;;;;;;22.08;12.95;;;10.10;99.90;;;;;;5157212;27;20091;-87
2022/10/13 02:30:34;;;;;;;22.70;13.35;;;9.90;99.90;;;;;;5137756;27;20066;-86
2022/10/13 02:33:01;;;;;;;22.17;12.75;;;10.20;99.90;;;;;;5140901;27;20035;-86
2022/10/13 02:35:27;;;;;;;19.38;12.73;;;10.20;99.90;;;;;;5141473;27;20038;-86
2022/10/13 02:37:52;;;;;;;19.98;13.35;;;10.20;99.90;;;;;;5155690;27;20039;-86
2022/10/13 02:40:18;;;;;;;23.45;12.98;;;10.20;99.90;;;;;;5158277;27;20413;-86
2022/10/13 02:42:44;;;;;;;24.17;13.00;;;10.20;99.90;;;;;;5136198;27;20157;-85
2022/10/13 02:45:10;;;;;;;23.15;13.68;;;10.20;99.90;;;;;;5136759;27;20097;-86
2022/10/13 02:47:36;;;;;;;25.10;12.45;;;10.20;99.90;;;;;;5138613;27;20045;-85
2022/10/13 02:50:02;;;;;;;21.05;12.02;;;10.20;99.90;;;;;;5119149;27;20032;-85
2022/10/13 02:52:28;;;;;;;21.85;13.38;;;10.20;99.90;;;;;;5155454;27;20054;-86
2022/10/13 02:54:53;;;;;;;26.27;13.10;;;10.30;99.90;;;;;;5118794;27;20039;-85
2022/10/13 02:57:19;;;;;;;22.33;12.80;;;10.30;99.90;;;;;;5136343;27;20047;-86
2022/10/13 02:59:45;;;;;;;27.42;13.55;;;10.30;99.90;;;;;;5119747;27;20476;-86
2022/10/13 03:02:11;;;;;;;25.73;13.95;;;10.30;99.90;;;;;;5138639;27;20138;-86
2022/10/13 03:04:36;;;;;;;23.27;13.07;;;10.30;99.90;;;;;;5118608;27;20046;-86
2022/10/13 03:07:02;;;;;;;21.40;13.55;;;10.30;99.90;;;;;;5136983;27;20035;-87
2022/10/13 03:09:28;;;;;;;25.52;13.65;;;10.30;99.90;;;;;;5127166;27;20031;-86
2022/10/13 03:11:53;;;;;;;22.23;13.52;;;10.30;99.90;;;;;;5122071;27;20035;-86
2022/10/13 03:14:19;;;;;;;30.98;13.90;;;10.40;99.90;;;;;;5134121;27;20042;-86
2022/10/13 03:16:45;;;;;;;23.77;13.38;;;10.40;99.90;;;;;;5115672;27;20035;-86
2022/10/13 03:19:11;;;;;;;22.85;14.30;;;10.40;99.90;;;;;;5154732;27;20410;-86
2022/10/13 03:21:38;;;;;;;24.35;14.27;;;10.40;99.90;;;;;;5122790;27;20043;-86
2022/10/13 03:24:06;;;;;;;24.83;14.65;;;10.40;99.90;;;;;;5136124;27;20114;-85
2022/10/13 03:26:33;;;;;;;22.00;13.45;;;10.40;99.90;;;;;;5119693;27;20053;-86
2022/10/13 03:29:00;;;;;;;22.42;14.07;;;10.40;99.90;;;;;;5130610;27;20062;-85
2022/10/13 03:31:26;;;;;;;21.13;13.52;;;10.40;99.90;;;;;;5154466;27;20046;-86
2022/10/13 03:33:52;;;;;;;27.92;14.27;;;10.40;99.90;;;;;;5139145;27;20041;-87
2022/10/13 03:36:18;;;;;;;27.48;14.70;;;10.40;99.90;;;;;;5122542;27;20070;-85
2022/10/13 03:38:43;;;;;;;24.30;14.63;;;10.40;99.90;;;;;;5152111;27;20502;-86
2022/10/13 03:41:17;;;;;;;24.88;14.35;;;10.40;99.90;;;;;;5139111;27;20117;-86
2022/10/13 03:43:43;;;;;;;25.83;14.48;;;10.40;99.90;;;;;;5135729;27;20122;-87
2022/10/13 03:46:14;;;;;;;24.08;15.35;;;10.40;99.90;;;;;;5119783;27;20042;-87
2022/10/13 03:48:40;;;;;;;26.75;15.32;;;10.40;99.90;;;;;;5132464;27;20771;-88
2022/10/13 03:51:16;;;;;;;23.88;14.68;;;10.40;99.90;;;;;;5138900;27;20149;-88
2022/10/13 03:53:42;;;;;;;25.45;14.70;;;10.50;99.90;;;;;;5136440;27;20049;-88
2022/10/13 03:56:13;;;;;;;23.77;15.25;;;10.50;99.90;;;;;;5096878;27;20039;-88
2022/10/13 03:58:39;;;;;;;29.25;16.00;;;10.50;99.90;;;;;;5130201;27;20168;-89
2022/10/13 04:01:05;;;;;;;27.20;16.23;;;11.50;99.90;;;;;;5111635;27;20503;-88
2022/10/13 04:03:31;;;;;;;27.20;16.90;;;10.50;99.90;;;;;;5117447;27;20047;-89
2022/10/13 04:06:01;;;;;;;25.35;15.05;;;10.50;99.90;;;;;;5136242;27;20118;-88
2022/10/13 04:08:28;;;;;;;23.75;15.48;;;10.50;99.90;;;;;;5132880;27;20042;-88
2022/10/13 04:11:03;;;;;;;26.90;16.08;;;10.50;99.90;;;;;;5120292;27;20043;-88
2022/10/13 04:13:29;;;;;;;27.70;15.18;;;10.50;99.90;;;;;;5127490;27;20042;-88
2022/10/13 04:15:55;;;;;;;32.10;16.33;;;10.50;99.90;;;;;;5123863;27;20043;-87
2022/10/13 04:18:20;;;;;;;29.42;15.98;;;10.50;99.90;;;;;;5126101;27;20099;-86
2022/10/13 04:20:46;;;;;;;26.80;15.98;;;10.50;99.90;;;;;;5114992;27;20129;-86
2022/10/13 04:23:12;;;;;;;27.40;16.23;;;10.50;99.90;;;;;;5131514;27;20372;-86
2022/10/13 04:25:38;;;;;;;29.40;16.17;;;10.50;99.90;;;;;;5137908;27;20088;-86
2022/10/13 04:28:07;;;;;;;30.77;16.10;;;10.50;99.90;;;;;;5149281;27;20071;-86
2022/10/13 04:30:33;;;;;;;29.27;17.00;;;10.50;99.90;;;;;;5108481;27;20087;-86
2022/10/13 04:32:59;;;;;;;29.73;17.00;;;10.50;99.90;;;;;;5135692;27;20087;-86
2022/10/13 04:35:25;;;;;;;32.15;16.38;;;10.50;99.90;;;;;;5097413;27;20449;-86
2022/10/13 04:37:50;;;;;;;26.80;15.30;;;10.50;99.90;;;;;;5138412;27;20069;-86
2022/10/13 04:40:16;;;;;;;26.90;15.48;;;10.50;99.90;;;;;;5133266;27;20406;-86
2022/10/13 04:42:42;;;;;;;27.40;16.05;;;10.50;99.90;;;;;;5137944;27;20042;-86
2022/10/13 04:45:08;;;;;;;25.77;14.77;;;10.60;99.90;;;;;;5115976;27;20413;-85
2022/10/13 04:47:35;;;;;;;24.45;15.70;;;10.50;99.90;;;;;;5101728;27;20474;-85
2022/10/13 04:50:01;;;;;;;26.83;16.00;;;10.50;99.90;;;;;;5132789;27;20034;-86
2022/10/13 04:52:27;;;;;;;30.30;15.90;;;10.50;99.90;;;;;;5135811;27;20532;-85
2022/10/13 04:54:52;;;;;;;24.65;15.43;;;10.50;99.90;;;;;;5109933;27;20107;-86
2022/10/13 04:57:18;;;;;;;27.38;15.38;;;10.50;99.90;;;;;;5131990;27;20069;-86
2022/10/13 04:59:43;;;;;;;25.27;15.50;;;10.50;99.90;;;;;;5119598;27;20121;-85
2022/10/13 05:02:09;;;;;;;27.45;15.38;;;10.60;99.90;;;;;;5134311;27;20099;-85
2022/10/13 05:04:35;;;;;;;22.60;15.65;;;10.50;99.90;;;;;;5114170;27;20463;-86
2022/10/13 05:07:01;;;;;;;26.67;15.85;;;10.50;99.90;;;;;;5132908;27;20113;-86
2022/10/13 05:09:27;;;;;;;30.23;15.82;;;10.60;99.90;;;;;;5120701;27;20113;-86
2022/10/13 05:11:54;;;;;;;27.33;15.95;;;10.60;99.90;;;;;;5127425;27;20064;-87
2022/10/13 05:14:20;;;;;;;30.60;16.40;;;11.10;99.90;;;;;;5138362;27;20034;-86
2022/10/13 05:16:46;;;;;;;27.95;16.23;;;10.60;99.90;;;;;;5118368;27;20049;-86
2022/10/13 05:19:12;;;;;;;31.02;16.60;;;10.60;99.90;;;;;;5133383;27;20035;-86
2022/10/13 05:21:38;;;;;;;25.52;15.82;;;10.60;99.90;;;;;;5141231;27;20178;-79
2022/10/13 05:24:05;;;;;;;28.02;17.05;;;10.70;99.90;;;;;;5131670;27;20034;-80
2022/10/13 05:26:35;;;;;;;28.33;16.10;;;10.70;99.90;;;;;;5116989;27;20043;-79
2022/10/13 05:29:01;;;;;;;28.70;15.52;;;10.70;99.90;;;;;;5113460;27;20037;-80
2022/10/13 05:31:28;;;;;;;28.70;16.50;;;10.70;99.90;;;;;;5131488;27;20046;-79
2022/10/13 05:33:55;;;;;;;28.52;16.02;;;10.70;99.90;;;;;;5114592;27;20058;-78
2022/10/13 05:36:33;;;;;;;27.17;16.45;;;10.70;99.90;;;;;;5132469;27;20046;-80
2022/10/13 05:39:04;;;;;;;27.00;15.73;;;10.70;99.90;;;;;;5128184;27;20131;-78
2022/10/13 05:41:31;;;;;;;26.52;15.23;;;10.80;99.90;;;;;;5144248;27;20050;-77
2022/10/13 05:43:59;;;;;;;31.33;16.08;;;10.70;99.90;;;;;;5132251;27;20475;-78
2022/10/13 05:46:25;;;;;;;21.92;15.10;;;10.80;99.90;;;;;;5149204;27;20066;-78
2022/10/13 05:48:51;;;;;;;25.23;16.10;;;10.80;99.90;;;;;;5131586;27;20117;-78
2022/10/13 05:51:21;;;;;;;25.45;17.08;;;10.70;99.90;;;;;;5114706;27;20380;-78
2022/10/13 05:53:51;;;;;;;27.48;15.73;;;10.80;99.90;;;;;;5124452;27;20043;-78
2022/10/13 05:56:23;;;;;;;29.30;16.95;;;10.80;99.90;;;;;;5131087;27;20041;-78
2022/10/13 05:58:58;;;;;;;28.88;15.95;;;10.80;99.90;;;;;;5130058;27;20042;-78
2022/10/13 06:01:27;;;;;;;28.50;16.70;;;10.80;99.90;;;;;;5128062;27;20050;-78
2022/10/13 06:03:57;;;;;;;30.35;16.83;;;10.80;99.90;;;;;;5117797;27;20039;-81
2022/10/13 06:06:24;;;;;;;25.00;15.90;;;10.80;99.90;;;;;;5132167;27;20027;-78
2022/10/13 06:08:51;;;;;;;31.38;16.70;;;10.80;99.90;;;;;;5141361;27;20380;-78
2022/10/13 06:11:16;;;;;;;26.30;16.95;;;10.80;99.90;;;;;;5139789;27;20042;-81
2022/10/13 06:13:42;;;;;;;27.08;16.27;;;10.80;99.90;;;;;;5119567;27;20035;-79
2022/10/13 06:16:08;;;;;;;22.98;15.82;;;10.80;99.90;;;;;;5128945;27;20122;-78
2022/10/13 06:18:33;;;;;;;27.25;16.60;;;10.90;99.90;;;;;;5140985;27;20087;-77
2022/10/13 06:20:59;;;;;;;29.27;16.55;;;10.80;99.90;;;;;;5128019;27;20153;-77
2022/10/13 06:23:25;;;;;;;29.75;16.65;;;10.90;99.90;;;;;;5125395;27;20483;-78
2022/10/13 06:25:52;;;;;;;24.38;15.88;;;10.90;99.90;;;;;;5112525;27;20042;-78
2022/10/13 06:28:19;;;;;;;31.63;16.13;;;10.90;99.90;;;;;;5117453;27;20026;-78
2022/10/13 06:30:48;;;;;;;32.22;17.50;;;10.90;99.90;;;;;;5127971;27;20038;-78
2022/10/13 06:33:14;;;;;;;31.02;16.15;;;10.90;99.90;;;;;;5156121;27;20043;-79
2022/10/13 06:35:40;;;;;;;26.50;17.00;;;10.90;99.90;;;;;;5134083;27;20050;-79
2022/10/13 06:38:05;;;;;;;30.92;17.02;;;10.90;99.90;;;;;;5137750;27;20074;-79
2022/10/13 06:40:31;;;;;;;34.58;17.77;;;11.00;99.90;;;;;;5154230;27;20048;-78
2022/10/13 06:42:57;;;;;;;33.17;18.20;;;11.00;99.90;;;;;;5120177;27;20035;-79
2022/10/13 06:45:24;;;;;;;31.58;18.13;;;11.10;99.90;;;;;;5097956;27;20031;-78
2022/10/13 06:47:52;;;;;;;32.00;17.60;;;11.00;99.90;;;;;;5115434;27;20031;-77
2022/10/13 06:50:18;;;;;;;30.23;17.58;;;11.00;99.90;;;;;;5137366;27;20114;-77
2022/10/13 06:52:44;;;;;;;26.95;16.60;;;11.10;99.90;;;;;;5119577;27;20509;-78
2022/10/13 06:55:10;;;;;;;28.83;17.15;;;11.10;99.90;;;;;;5133515;27;20107;-78
2022/10/13 06:57:35;;;;;;;27.50;16.80;;;11.10;99.90;;;;;;5104356;27;20430;-78
2022/10/13 07:00:01;;;;;;;36.00;17.25;;;11.10;99.90;;;;;;5111778;27;20487;-77
2022/10/13 07:02:27;;;;;;;27.70;17.52;;;11.10;99.90;;;;;;5129280;27;20047;-77
2022/10/13 07:04:53;;;;;;;27.38;17.27;;;11.10;99.90;;;;;;5111471;27;20030;-77
2022/10/13 07:07:18;;;;;;;33.47;17.42;;;11.10;99.90;;;;;;5144655;27;20107;-77
2022/10/13 07:09:44;;;;;;;29.17;16.92;;;11.10;99.90;;;;;;5117254;27;20494;-77
2022/10/13 07:12:11;;;;;;;31.08;17.67;;;11.20;99.90;;;;;;5104069;27;20034;-78
2022/10/13 07:14:37;;;;;;;28.15;16.73;;;11.20;99.90;;;;;;5116618;27;20034;-79
2022/10/13 07:17:03;;;;;;;31.02;16.58;;;11.20;99.90;;;;;;5140568;27;20085;-79
2022/10/13 07:19:28;;;;;;;32.92;17.13;;;11.30;99.90;;;;;;5147226;27;20045;-79
2022/10/13 07:21:55;;;;;;;31.38;18.05;;;11.30;99.90;;;;;;5138197;27;20118;-79
2022/10/13 07:24:21;;;;;;;29.25;17.13;;;11.30;99.90;;;;;;5133202;27;20043;-79
2022/10/13 07:26:47;;;;;;;27.63;17.30;;;11.30;99.90;;;;;;5134539;27;20042;-79
2022/10/13 07:29:12;;;;;;;34.00;18.20;;;11.30;99.90;;;;;;5128316;27;20402;-78
2022/10/13 07:31:38;;;;;;;26.17;16.83;;;11.40;99.90;;;;;;5106683;27;20035;-79
2022/10/13 07:34:05;;;;;;;32.95;17.63;;;11.40;99.90;;;;;;5113590;27;20538;-79
2022/10/13 07:36:32;;;;;;;26.85;16.98;;;11.40;99.90;;;;;;5119787;27;20371;-79
2022/10/13 07:38:59;;;;;;;28.60;18.10;;;11.40;99.90;;;;;;5153067;27;20050;-79
2022/10/13 07:41:24;;;;;;;34.15;18.98;;;11.50;99.90;;;;;;5138390;27;20038;-78
2022/10/13 07:43:57;;;;;;;31.05;18.05;;;11.50;99.90;;;;;;5114705;27;20034;-79
2022/10/13 07:46:24;;;;;;;28.90;18.17;;;11.60;99.90;;;;;;5113502;27;20026;-78
2022/10/13 07:48:52;;;;;;;35.72;18.70;;;11.60;99.90;;;;;;5119646;27;20049;-78
2022/10/13 07:51:17;;;;;;;30.13;18.63;;;11.70;99.90;;;;;;5155149;27;20027;-79
2022/10/13 07:53:45;;;;;;;28.08;17.98;;;11.70;99.90;;;;;;5137291;27;20525;-78
2022/10/13 07:56:12;;;;;;;29.85;18.13;;;11.70;99.90;;;;;;5120840;27;20049;-79
2022/10/13 07:58:40;;;;;;;30.55;18.30;;;11.80;99.90;;;;;;5132043;27;20479;-80
2022/10/13 08:01:07;;;;;;;31.08;19.05;;;11.90;99.90;;;;;;5132227;27;20039;-79
2022/10/13 08:03:33;;;;;;;34.85;18.73;;;11.90;99.90;;;;;;5141006;27;20050;-79
2022/10/13 08:06:00;;;;;;;30.77;19.13;;;11.90;99.90;;;;;;5121828;27;20033;-79
2022/10/13 08:08:27;;;;;;;31.67;19.27;;;11.90;99.90;;;;;;5100061;27;20031;-79
2022/10/13 08:10:53;;;;;;;33.88;18.80;;;12.00;99.90;;;;;;5127625;27;20048;-79
2022/10/13 08:13:19;;;;;;;34.72;19.40;;;12.10;99.90;;;;;;5135443;27;20030;-79
2022/10/13 08:15:45;;;;;;;31.17;19.30;;;12.10;99.90;;;;;;5135092;27;20565;-79
2022/10/13 08:18:13;;;;;;;33.38;18.25;;;12.20;99.90;;;;;;5132816;27;20113;-78
2022/10/13 08:20:40;;;;;;;32.63;18.60;;;12.20;99.90;;;;;;5156064;27;20093;-78
2022/10/13 08:23:06;;;;;;;31.55;18.98;;;12.30;99.90;;;;;;5153273;27;20153;-79
2022/10/13 08:25:37;;;;;;;31.00;19.08;;;12.30;99.90;;;;;;5120053;27;20130;-79
2022/10/13 08:28:04;;;;;;;28.35;17.70;;;12.30;99.90;;;;;;5136246;27;20086;-79
2022/10/13 08:30:29;;;;;;;32.10;18.52;;;12.30;99.90;;;;;;5138373;27;20034;-79
2022/10/13 08:32:55;;;;;;;31.73;18.20;;;12.30;99.90;;;;;;5139094;27;20046;-79
2022/10/13 08:35:21;;;;;;;31.10;18.50;;;12.30;99.90;;;;;;5138706;27;20035;-79
2022/10/13 08:37:46;;;;;;;33.33;18.15;;;12.30;99.90;;;;;;5120580;27;20039;-80
2022/10/13 08:40:16;;;;;;;31.52;18.35;;;12.30;99.90;;;;;;5138258;27;20046;-79
2022/10/13 08:42:43;;;;;;;33.50;19.02;;;12.30;99.90;;;;;;5155919;27;20042;-80
2022/10/13 08:45:18;;;;;;;32.67;18.65;;;12.30;99.90;;;;;;5138143;27;20031;-78
2022/10/13 08:48:06;;;;;;;34.30;19.10;;;12.30;99.90;;;;;;5154509;27;20145;-78
2022/10/13 08:50:35;;;;;;;33.50;19.23;;;12.30;99.90;;;;;;5137686;27;20046;-78
2022/10/13 08:53:04;;;;;;;33.53;18.38;;;12.30;99.90;;;;;;5138061;27;20436;-79
2022/10/13 08:55:36;;;;;;;31.58;18.70;;;12.30;99.90;;;;;;5154965;27;20035;-79
2022/10/13 08:58:11;;;;;;;33.40;18.95;;;12.30;99.90;;;;;;5137100;27;20034;-79
2022/10/13 09:00:37;;;;;;;36.37;19.40;;;12.30;99.90;;;;;;5136479;27;20121;-79
2022/10/13 09:03:23;;;;;;;29.13;18.98;;;12.30;99.90;;;;;;5136774;27;20082;-78
2022/10/13 09:06:16;;;;;;;32.17;19.63;;;12.30;99.90;;;;;;5133827;27;20039;-79
2022/10/13 09:08:52;;;;;;;29.98;19.80;;;12.40;99.90;;;;;;5117111;27;20039;-79
2022/10/13 09:11:18;;;;;;;34.03;19.55;;;12.40;99.90;;;;;;5127931;27;20412;-79
2022/10/13 09:13:44;;;;;;;30.42;19.20;;;12.40;99.90;;;;;;5120640;27;20095;-79
2022/10/13 09:16:10;;;;;;;34.97;19.42;;;12.40;99.90;;;;;;5120547;27;20039;-79
2022/10/13 09:18:37;;;;;;;32.40;19.67;;;12.50;99.90;;;;;;5154555;27;20121;-79
2022/10/13 09:21:23;;;;;;;36.63;20.80;;;12.60;99.90;;;;;;5135218;27;20117;-79
2022/10/13 09:23:50;;;;;;;33.47;19.85;;;12.60;99.90;;;;;;5137441;27;20077;-80
2022/10/13 09:26:23;;;;;;;47.63;23.40;;;12.70;99.90;;;;;;5136370;27;20668;-79
2022/10/13 09:28:50;;;;;;;37.42;20.58;;;12.80;99.90;;;;;;5137216;27;20073;-79
2022/10/13 09:31:18;;;;;;;38.42;22.52;;;12.90;99.90;;;;;;5136317;27;20031;-79
2022/10/13 09:33:44;;;;;;;34.42;22.15;;;12.80;99.90;;;;;;5154418;27;20581;-79
2022/10/13 09:36:13;;;;;;;39.08;22.67;;;12.80;99.90;;;;;;5136083;27;20502;-80
2022/10/13 09:38:41;;;;;;;40.03;22.23;;;12.80;99.90;;;;;;5136973;27;20042;-79
2022/10/13 09:41:18;;;;;;;40.20;22.63;;;12.80;99.90;;;;;;5154359;27;20043;-79
2022/10/13 09:43:47;;;;;;;38.00;22.83;;;12.80;99.90;;;;;;5136728;27;20035;-79
2022/10/13 09:46:19;;;;;;;35.47;22.13;;;12.80;99.90;;;;;;5135709;27;20394;-81
2022/10/13 09:48:49;;;;;;;38.90;23.65;;;12.80;99.90;;;;;;5136133;27;20117;-80
2022/10/13 09:51:33;;;;;;;35.35;22.85;;;12.80;99.90;;;;;;5136008;27;20045;-80
2022/10/13 09:53:59;;;;;;;40.42;24.35;;;13.00;99.90;;;;;;5135774;27;20479;-80
2022/10/13 09:56:35;;;;;;;40.25;24.08;;;12.80;99.90;;;;;;5117830;27;20117;-80
2022/10/13 09:59:14;;;;;;;39.35;23.77;;;12.70;99.90;;;;;;5152878;27;20702;-81
2022/10/13 10:01:44;;;;;;;42.75;23.80;;;12.80;99.90;;;;;;5135841;27;20046;-81
2022/10/13 10:04:15;;;;;;;40.22;24.50;;;12.70;99.90;;;;;;5135598;27;20082;-81
2022/10/13 10:06:42;;;;;;;41.65;24.73;;;12.80;99.90;;;;;;5134948;27;20038;-80
2022/10/13 10:09:34;;;;;;;47.30;24.10;;;12.80;99.90;;;;;;5133784;27;20035;-80
2022/10/13 10:12:02;;;;;;;38.35;25.50;;;12.80;99.90;;;;;;5120653;27;20062;-80
2022/10/13 10:14:31;;;;;;;44.28;25.25;;;12.80;99.90;;;;;;5135995;27;20042;-80
2022/10/13 10:17:16;;;;;;;42.13;26.15;;;12.80;99.90;;;;;;5135483;27;20042;-80
2022/10/13 10:20:09;;;;;;;39.08;26.02;;;12.90;99.90;;;;;;5135614;27;20046;-79
2022/10/13 10:23:00;;;;;;;37.67;26.15;;;12.90;99.90;;;;;;5147582;27;20042;-79
2022/10/13 10:25:32;;;;;;;49.05;26.45;;;12.90;99.90;;;;;;5153753;27;20606;-79
2022/10/13 10:28:16;;;;;;;41.10;27.17;;;12.90;99.90;;;;;;5153583;27;20398;-79
2022/10/13 10:30:55;;;;;;;37.10;25.85;;;12.90;99.90;;;;;;5136653;27;20038;-80
2022/10/13 10:33:39;;;;;;;47.38;27.83;;;13.00;99.90;;;;;;5154847;27;20087;-79
2022/10/13 10:36:15;;;;;;;44.30;27.90;;;13.00;99.90;;;;;;5137033;27;20126;-79
2022/10/13 10:38:40;;;;;;;;;;;13.00;99.90;;;;;;5137741;27;20035;-79
2022/10/13 10:41:31;;;;;;;44.00;27.23;;;13.00;99.90;;;;;;5137004;27;20515;-79
2022/10/13 10:44:11;;;;;;;48.92;28.45;;;13.10;99.90;;;;;;5148957;27;20043;-78
2022/10/13 10:46:46;;;;;;;44.35;29.00;;;13.10;99.90;;;;;;5150868;27;20060;-79
2022/10/13 10:49:39;;;;;;;51.20;29.30;;;13.10;99.90;;;;;;5144559;27;20478;-79
2022/10/13 10:52:14;;;;;;;47.90;29.45;;;13.20;99.90;;;;;;5138237;27;20054;-79
2022/10/13 10:54:56;;;;;;;45.38;29.77;;;13.10;99.90;;;;;;5158486;27;20391;-79
2022/10/13 10:57:27;;;;;;;52.95;30.42;;;13.30;99.90;;;;;;5157871;27;20039;-79
2022/10/13 11:00:08;;;;;;;42.78;29.75;;;13.20;99.90;;;;;;5139805;27;20149;-79
2022/10/13 11:02:57;;;;;;;49.28;30.90;;;13.30;99.90;;;;;;5140023;27;20090;-79
2022/10/13 11:05:23;;;;;;;50.08;30.20;;;13.30;99.90;;;;;;5140298;27;20481;-80
2022/10/13 11:07:51;;;;;;;45.25;28.88;;;13.30;99.90;;;;;;5140403;27;20130;-79
2022/10/13 11:10:20;;;;;;;50.10;31.08;;;13.40;99.90;;;;;;5141796;27;20047;-79
2022/10/13 11:12:47;;;;;;;47.42;30.33;;;13.40;99.90;;;;;;5132574;27;20043;-80
2022/10/13 11:15:23;;;;;;;48.92;31.45;;;13.40;99.90;;;;;;5157803;27;20038;-79
2022/10/13 11:17:49;;;;;;;45.40;30.25;;;13.40;99.90;;;;;;5157087;27;20039;-79
2022/10/13 11:20:18;;;;;;;55.05;31.45;;;13.40;99.90;;;;;;5138563;27;20136;-79
2022/10/13 11:22:56;;;;;;;46.25;29.52;;;13.40;99.90;;;;;;5139912;27;20041;-79
2022/10/13 11:25:38;;;;;;;44.78;30.98;;;13.40;99.90;;;;;;5157357;27;20386;-80
2022/10/13 11:28:19;;;;;;;44.85;30.08;;;13.40;99.90;;;;;;5138961;27;20126;-79
2022/10/13 11:30:56;;;;;;;48.33;30.58;;;13.40;99.90;;;;;;5137910;27;20030;-79
2022/10/13 11:33:37;;;;;;;49.55;31.42;;;13.40;99.90;;;;;;5138804;27;20382;-79
2022/10/13 11:36:29;;;;;;;49.42;30.98;;;13.40;99.90;;;;;;5138955;27;20081;-79
2022/10/13 11:39:27;;;;;;;51.45;31.65;;;13.40;99.90;;;;;;5138863;27;20049;-80
2022/10/13 11:42:11;;;;;;;48.35;32.17;;;13.40;99.90;;;;;;5114073;27;20058;-79
2022/10/13 11:45:22;;;;;;;54.33;32.83;;;13.40;99.90;;;;;;5138560;27;20390;-79
2022/10/13 11:48:06;;;;;;;52.00;34.13;;;13.50;99.90;;;;;;5113764;27;20054;-79
2022/10/13 11:51:04;;;;;;;49.22;32.92;;;13.50;99.90;;;;;;5138505;27;20042;-79
2022/10/13 11:53:39;;;;;;;46.60;32.33;;;13.50;99.90;;;;;;5138161;27;20043;-79
2022/10/13 11:56:21;;;;;;;49.95;33.80;;;13.50;99.90;;;;;;5139372;27;20077;-79
2022/10/13 11:58:47;;;;;;;52.70;34.70;;;13.50;99.90;;;;;;5155697;27;20039;-80
2022/10/13 12:01:15;;;;;;;47.13;33.45;;;13.50;99.90;;;;;;5122218;27;20543;-79
2022/10/13 12:03:46;;;;;;;54.47;34.65;;;13.60;99.90;;;;;;5139222;27;20055;-80
2022/10/13 12:06:32;;;;;;;54.45;33.90;;;13.60;99.90;;;;;;5139464;27;20422;-79
2022/10/13 12:09:05;;;;;;;46.47;32.63;;;13.60;99.90;;;;;;5155377;27;20038;-80
2022/10/13 12:11:37;;;;;;;46.40;32.00;;;13.60;99.90;;;;;;5138733;27;20390;-80
2022/10/13 12:14:18;;;;;;;51.92;31.77;;;13.60;99.90;;;;;;5138838;27;20045;-80
2022/10/13 12:16:58;;;;;;;50.15;32.13;;;13.60;99.90;;;;;;5155981;27;20485;-80
2022/10/13 12:19:26;;;;;;;51.45;33.00;;;13.60;99.90;;;;;;5135856;27;20050;-80
2022/10/13 12:21:55;;;;;;;56.55;34.88;;;13.50;99.90;;;;;;5137761;27;20379;-80
2022/10/13 12:24:22;;;;;;;48.65;32.72;;;13.60;99.90;;;;;;5138485;27;20106;-79
2022/10/13 12:26:49;;;;;;;45.70;33.03;;;13.60;99.90;;;;;;5139642;27;20034;-80
2022/10/13 12:29:16;;;;;;;47.78;33.88;;;13.60;99.90;;;;;;5155134;27;20042;-80
2022/10/13 12:31:43;;;;;;;47.97;32.13;;;13.60;99.90;;;;;;5138839;27;20110;-80
2022/10/13 12:34:33;;;;;;;51.75;34.35;;;13.60;99.90;;;;;;5155960;27;20486;-80
2022/10/13 12:37:00;;;;;;;51.20;34.53;;;13.60;99.90;;;;;;5139610;27;20130;-80
2022/10/13 12:39:29;;;;;;;55.85;34.97;;;13.70;99.90;;;;;;5154262;27;20405;-79
2022/10/13 12:41:56;;;;;;;51.85;35.10;;;13.70;99.90;;;;;;5156207;27;20034;-80
2022/10/13 12:44:28;;;;;;;53.22;34.85;;;13.70;99.90;;;;;;5138710;27;20039;-80
2022/10/13 12:46:57;;;;;;;124.38;40.67;;;13.80;99.90;;;;;;5138085;27;20038;-80